createdAt,value
2019-05-22T00:00:26.030Z,23.43
2019-05-22T00:03:17.879Z,23.91
2019-05-22T00:05:50.345Z,23.65
2019-05-22T00:08:22.372Z,22.85
2019-05-22T00:10:55.162Z,22.19
2019-05-22T00:13:30.687Z,21.64
2019-05-22T00:16:04.269Z,21.92
2019-05-22T00:18:37.571Z,22.72
2019-05-22T00:21:12.794Z,23.36
2019-05-22T00:23:46.950Z,23.91
2019-05-22T00:26:20.166Z,24.30
2019-05-22T00:28:54.470Z,23.85
2019-05-22T00:31:26.309Z,23.03
2019-05-22T00:34:00.390Z,22.36
2019-05-22T00:36:33.940Z,21.81
2019-05-22T00:39:08.347Z,21.99
2019-05-22T00:41:40.289Z,22.76
2019-05-22T00:44:14.180Z,23.43
2019-05-22T00:46:45.821Z,23.96
2019-05-22T00:49:18.342Z,23.58
2019-05-22T00:52:04.724Z,22.85
2019-05-22T00:54:55.731Z,22.12
2019-05-22T00:57:29.887Z,22.36
2019-05-22T01:00:19.415Z,23.03
2019-05-22T01:02:54.835Z,23.66
2019-05-22T01:05:29.703Z,24.17
2019-05-22T01:08:03.376Z,23.81
2019-05-22T01:10:38.097Z,23.02
2019-05-22T01:13:10.260Z,22.33
2019-05-22T01:15:42.119Z,21.78
2019-05-22T01:18:15.496Z,22.08
2019-05-22T01:20:49.868Z,22.81
2019-05-22T01:23:24.216Z,23.41
2019-05-22T01:25:55.988Z,24.05
2019-05-22T01:28:28.486Z,24.46
2019-05-22T01:31:03.371Z,24.10
2019-05-22T01:33:39.509Z,23.26
2019-05-22T01:36:22.026Z,22.61
2019-05-22T01:38:58.753Z,22.03
2019-05-22T01:41:33.122Z,22.37
2019-05-22T01:44:07.277Z,23.16
2019-05-22T01:46:43.758Z,23.77
2019-05-22T01:49:16.878Z,24.20
2019-05-22T01:51:48.529Z,24.12
2019-05-22T01:54:22.375Z,23.36
2019-05-22T01:56:55.945Z,22.65
2019-05-22T01:59:28.260Z,22.91
2019-05-22T02:02:00.583Z,23.69
2019-05-22T02:04:34.546Z,24.21
2019-05-22T02:07:08.507Z,24.75
2019-05-22T02:09:44.509Z,24.52
2019-05-22T02:12:30.994Z,23.81
2019-05-22T02:15:03.213Z,23.12
2019-05-22T02:17:37.590Z,22.57
2019-05-22T02:20:11.434Z,22.86
2019-05-22T02:22:44.801Z,23.62
2019-05-22T02:25:17.781Z,24.28
2019-05-22T02:27:51.005Z,24.87
2019-05-22T02:30:25.021Z,25.27
2019-05-22T02:32:57.611Z,24.61
2019-05-22T02:35:31.208Z,23.84
2019-05-22T02:38:04.514Z,23.23
2019-05-22T02:40:39.222Z,22.68
2019-05-22T02:43:14.248Z,23.00
2019-05-22T02:45:46.903Z,23.74
2019-05-22T02:48:18.842Z,24.32
2019-05-22T02:50:52.677Z,24.87
2019-05-22T02:53:25.522Z,24.59
2019-05-22T02:55:57.621Z,23.87
2019-05-22T02:58:31.483Z,23.19
2019-05-22T03:01:06.725Z,22.55
2019-05-22T03:03:39.330Z,22.83
2019-05-22T03:06:14.487Z,23.51
2019-05-22T03:09:12.211Z,24.20
2019-05-22T03:12:01.634Z,24.76
2019-05-22T03:14:36.106Z,24.37
2019-05-22T03:17:13.014Z,23.62
2019-05-22T03:19:48.464Z,23.02
2019-05-22T03:22:40.966Z,22.46
2019-05-22T03:25:16.000Z,22.83
2019-05-22T03:27:54.417Z,23.60
2019-05-22T03:30:34.859Z,24.21
2019-05-22T03:33:08.367Z,24.05
2019-05-22T03:35:47.774Z,23.37
2019-05-22T03:38:21.614Z,22.71
2019-05-22T03:40:54.959Z,22.16
2019-05-22T03:43:29.720Z,22.48
2019-05-22T03:46:25.168Z,23.25
2019-05-22T03:48:58.720Z,23.99
2019-05-22T03:51:31.382Z,24.54
2019-05-22T03:54:04.568Z,24.17
2019-05-22T03:56:41.337Z,23.37
2019-05-22T03:59:13.832Z,22.75
2019-05-22T04:01:45.961Z,22.17
2019-05-22T04:04:34.171Z,22.40
2019-05-22T04:07:11.931Z,23.22
2019-05-22T04:09:46.444Z,23.82
2019-05-22T04:12:23.976Z,24.30
2019-05-22T04:14:55.865Z,24.07
2019-05-22T04:17:28.927Z,23.32
2019-05-22T04:20:01.148Z,22.61
2019-05-22T04:22:33.671Z,22.01
2019-05-22T04:25:09.004Z,22.29
2019-05-22T04:27:42.598Z,22.96
2019-05-22T04:30:15.945Z,23.55
2019-05-22T04:32:49.131Z,24.07
2019-05-22T04:35:24.469Z,23.89
2019-05-22T04:37:57.055Z,23.12
2019-05-22T04:40:42.676Z,22.44
2019-05-22T04:43:14.797Z,21.85
2019-05-22T04:45:48.998Z,22.15
2019-05-22T04:48:22.868Z,22.96
2019-05-22T04:50:54.970Z,23.66
2019-05-22T04:53:29.097Z,24.19
2019-05-22T04:56:02.212Z,23.78
2019-05-22T04:58:34.562Z,23.05
2019-05-22T05:01:06.498Z,22.40
2019-05-22T05:03:38.919Z,21.86
2019-05-22T05:06:11.895Z,22.16
2019-05-22T05:08:44.618Z,22.92
2019-05-22T05:11:17.565Z,23.57
2019-05-22T05:13:49.556Z,23.81
2019-05-22T05:16:21.460Z,23.27
2019-05-22T05:18:53.854Z,22.61
2019-05-22T05:21:26.066Z,22.02
2019-05-22T05:23:58.563Z,22.36
2019-05-22T05:26:31.834Z,23.10
2019-05-22T05:29:04.757Z,23.81
2019-05-22T05:31:36.802Z,24.39
2019-05-22T05:34:24.959Z,24.17
2019-05-22T05:36:57.808Z,23.38
2019-05-22T05:39:40.456Z,22.75
2019-05-22T05:42:12.674Z,22.21
2019-05-22T05:44:44.530Z,22.40
2019-05-22T05:47:21.890Z,23.20
2019-05-22T05:49:54.899Z,23.99
2019-05-22T05:52:29.364Z,24.41
2019-05-22T05:55:02.945Z,24.05
2019-05-22T05:57:39.302Z,23.36
2019-05-22T06:00:34.225Z,22.76
2019-05-22T06:03:35.573Z,22.16
2019-05-22T06:06:27.461Z,22.58
2019-05-22T06:09:02.602Z,23.48
2019-05-22T06:11:51.552Z,24.10
2019-05-22T06:14:33.737Z,24.67
2019-05-22T06:17:44.453Z,24.30
2019-05-22T06:20:19.679Z,23.45
2019-05-22T06:23:32.310Z,22.81
2019-05-22T06:26:04.900Z,22.16
2019-05-22T06:28:38.766Z,22.48
2019-05-22T06:31:31.340Z,23.25
2019-05-22T06:34:05.422Z,23.89
2019-05-22T06:36:37.631Z,24.09
2019-05-22T06:39:10.433Z,23.32
2019-05-22T06:41:44.095Z,22.70
2019-05-22T06:44:35.184Z,22.19
2019-05-22T06:47:09.880Z,22.65
2019-05-22T06:49:44.065Z,23.47
2019-05-22T06:52:18.108Z,24.19
2019-05-22T06:54:49.949Z,24.36
2019-05-22T06:57:23.769Z,23.72
2019-05-22T07:00:12.377Z,23.10
2019-05-22T07:02:32.576Z,22.53
2019-05-22T07:05:06.429Z,22.85
2019-05-22T07:07:39.106Z,23.64
2019-05-22T07:10:12.709Z,24.19
2019-05-22T07:12:44.656Z,24.79
2019-05-22T07:15:26.885Z,24.19
2019-05-22T07:17:59.086Z,23.40
2019-05-22T07:20:34.597Z,22.83
2019-05-22T07:23:07.191Z,22.33
2019-05-22T07:25:41.356Z,22.71
2019-05-22T07:28:15.905Z,23.48
2019-05-22T07:30:49.559Z,24.12
2019-05-22T07:33:23.420Z,24.67
2019-05-22T07:36:17.006Z,24.46
2019-05-22T07:38:33.682Z,23.72
2019-05-22T07:41:06.057Z,23.13
2019-05-22T07:43:41.341Z,22.58
2019-05-22T07:46:11.684Z,22.89
2019-05-22T07:48:44.491Z,23.65
2019-05-22T07:51:19.523Z,24.28
2019-05-22T07:53:53.943Z,24.16
2019-05-22T07:56:30.189Z,23.45
2019-05-22T07:59:03.187Z,22.88
2019-05-22T08:01:35.802Z,22.50
2019-05-22T08:04:08.206Z,23.22
2019-05-22T08:06:41.336Z,24.06
2019-05-22T08:09:14.499Z,24.76
2019-05-22T08:11:47.468Z,24.32
2019-05-22T08:14:19.672Z,23.71
2019-05-22T08:16:52.859Z,23.26
2019-05-22T08:19:27.175Z,22.83
2019-05-22T08:22:07.422Z,23.44
2019-05-22T08:24:34.271Z,24.28
2019-05-22T08:27:08.320Z,24.93
2019-05-22T08:29:49.785Z,24.51
2019-05-22T08:32:27.406Z,23.85
2019-05-22T08:35:00.300Z,23.32
2019-05-22T08:37:39.180Z,22.82
2019-05-22T08:40:15.223Z,23.23
2019-05-22T08:42:51.740Z,24.09
2019-05-22T08:45:25.150Z,24.85
2019-05-22T08:48:00.067Z,24.65
2019-05-22T08:50:35.191Z,23.95
2019-05-22T08:53:11.900Z,23.37
2019-05-22T08:55:45.284Z,22.86
2019-05-22T08:58:20.322Z,22.51
2019-05-22T09:00:53.863Z,22.99
2019-05-22T09:03:26.356Z,24.02
2019-05-22T09:05:57.915Z,24.78
2019-05-22T09:08:30.953Z,24.72
2019-05-22T09:11:04.198Z,24.13
2019-05-22T09:13:35.865Z,23.62
2019-05-22T09:16:08.714Z,23.23
2019-05-22T09:18:41.407Z,22.74
2019-05-22T09:21:14.060Z,22.96
2019-05-22T09:23:46.723Z,23.77
2019-05-22T09:26:18.827Z,23.93
2019-05-22T09:28:50.784Z,23.33
2019-05-22T09:31:23.095Z,22.76
2019-05-22T09:33:55.044Z,22.43
2019-05-22T09:36:27.248Z,23.12
2019-05-22T09:38:59.015Z,24.03
2019-05-22T09:41:32.099Z,24.68
2019-05-22T09:44:04.135Z,24.62
2019-05-22T09:46:36.002Z,24.10
2019-05-22T09:49:10.499Z,23.55
2019-05-22T09:51:43.183Z,23.10
2019-05-22T09:54:15.672Z,22.81
2019-05-22T09:56:47.413Z,23.32
2019-05-22T09:59:19.440Z,24.30
2019-05-22T10:01:51.712Z,24.98
2019-05-22T10:04:23.811Z,24.55
2019-05-22T10:06:55.797Z,24.09
2019-05-22T10:09:28.505Z,23.68
2019-05-22T10:12:03.052Z,23.38
2019-05-22T10:14:35.377Z,23.22
2019-05-22T10:17:07.801Z,23.61
2019-05-22T10:19:39.855Z,24.75
2019-05-22T10:22:12.840Z,24.90
2019-05-22T10:24:49.866Z,24.40
2019-05-22T10:27:19.737Z,23.89
2019-05-22T10:29:52.492Z,23.57
2019-05-22T10:32:25.079Z,23.30
2019-05-22T10:34:58.261Z,23.06
2019-05-22T10:37:30.181Z,22.85
2019-05-22T10:40:03.208Z,23.53
2019-05-22T10:42:35.044Z,24.62
2019-05-22T10:45:08.425Z,24.62
2019-05-22T10:47:40.590Z,24.12
2019-05-22T10:50:13.828Z,23.77
2019-05-22T10:52:45.468Z,23.47
2019-05-22T10:55:20.214Z,23.33
2019-05-22T10:57:52.085Z,23.27
2019-05-22T11:00:26.216Z,23.17
2019-05-22T11:02:58.959Z,24.10
2019-05-22T11:05:31.163Z,24.46
2019-05-22T11:08:03.544Z,24.24
2019-05-22T11:10:36.445Z,24.06
2019-05-22T11:13:08.548Z,23.93
2019-05-22T11:15:40.990Z,23.87
2019-05-22T11:18:13.865Z,23.91
2019-05-22T11:20:46.018Z,23.87
2019-05-22T11:23:18.079Z,23.84
2019-05-22T11:25:49.745Z,23.79
2019-05-22T11:28:22.148Z,23.77
2019-05-22T11:30:54.287Z,23.72
2019-05-22T11:33:26.077Z,23.66
2019-05-22T11:35:58.491Z,23.68
2019-05-22T11:38:30.353Z,23.62
2019-05-22T11:41:02.586Z,23.58
2019-05-22T11:43:35.120Z,23.53
2019-05-22T11:46:09.114Z,23.47
2019-05-22T11:48:40.761Z,23.38
2019-05-22T11:51:12.521Z,23.32
2019-05-22T11:53:44.437Z,23.30
2019-05-22T11:56:16.840Z,23.29
2019-05-22T11:58:49.542Z,23.26
2019-05-22T12:01:21.867Z,23.25
2019-05-22T12:03:53.901Z,23.19
2019-05-22T12:06:26.929Z,23.26
2019-05-22T12:08:59.600Z,24.37
2019-05-22T12:11:34.900Z,24.95
2019-05-22T12:14:09.244Z,24.75
2019-05-22T12:16:46.185Z,24.52
2019-05-22T12:19:17.828Z,24.34
2019-05-22T12:21:49.768Z,24.10
2019-05-22T12:24:28.400Z,23.89
2019-05-22T12:26:55.188Z,23.74
2019-05-22T12:29:28.162Z,23.62
2019-05-22T12:32:00.684Z,23.51
2019-05-22T12:34:32.544Z,23.40
2019-05-22T12:37:05.663Z,23.33
2019-05-22T12:39:40.058Z,23.26
2019-05-22T12:42:15.741Z,23.23
2019-05-22T12:44:48.146Z,23.19
2019-05-22T12:47:25.209Z,23.10
2019-05-22T12:49:59.371Z,22.93
2019-05-22T12:52:31.678Z,22.76
2019-05-22T12:55:09.035Z,22.64
2019-05-22T12:57:41.685Z,23.38
2019-05-22T13:00:14.751Z,24.47
2019-05-22T13:02:47.972Z,24.58
2019-05-22T13:05:20.066Z,24.19
2019-05-22T13:07:53.372Z,23.87
2019-05-22T13:10:27.298Z,23.64
2019-05-22T13:12:59.941Z,23.43
2019-05-22T13:15:33.792Z,23.22
2019-05-22T13:18:08.459Z,23.00
2019-05-22T13:20:45.027Z,22.81
2019-05-22T13:23:18.401Z,22.61
2019-05-22T13:25:50.635Z,23.27
2019-05-22T13:28:25.825Z,24.46
2019-05-22T13:30:58.530Z,24.61
2019-05-22T13:33:31.851Z,24.26
2019-05-22T13:36:05.089Z,23.93
2019-05-22T13:38:37.086Z,23.74
2019-05-22T13:41:10.040Z,23.57
2019-05-22T13:43:42.458Z,23.41
2019-05-22T13:46:15.732Z,23.29
2019-05-22T13:48:47.578Z,23.12
2019-05-22T13:51:20.930Z,23.02
2019-05-22T13:53:54.326Z,22.91
2019-05-22T13:56:27.370Z,22.75
2019-05-22T13:58:59.560Z,22.54
2019-05-22T14:01:32.045Z,23.23
2019-05-22T14:04:03.991Z,24.28
2019-05-22T14:06:37.245Z,24.10
2019-05-22T14:09:13.673Z,23.69
2019-05-22T14:11:47.015Z,23.38
2019-05-22T14:14:20.557Z,23.13
2019-05-22T14:16:53.823Z,22.93
2019-05-22T14:19:25.561Z,22.72
2019-05-22T14:21:57.716Z,22.57
2019-05-22T14:24:31.640Z,22.38
2019-05-22T14:27:06.066Z,23.09
2019-05-22T14:29:44.164Z,24.10
2019-05-22T14:32:17.153Z,23.77
2019-05-22T14:34:49.250Z,23.34
2019-05-22T14:37:22.088Z,22.98
2019-05-22T14:39:54.393Z,22.65
2019-05-22T14:42:30.165Z,22.76
2019-05-22T14:45:03.595Z,23.75
2019-05-22T14:47:41.723Z,23.85
2019-05-22T14:50:25.899Z,23.33
2019-05-22T14:52:55.575Z,22.79
2019-05-22T14:55:30.081Z,22.41
2019-05-22T14:58:07.234Z,22.09
2019-05-22T15:00:42.143Z,22.57
2019-05-22T15:03:18.003Z,23.60
2019-05-22T15:05:50.124Z,23.65
2019-05-22T15:08:24.452Z,23.09
2019-05-22T15:10:58.841Z,22.67
2019-05-22T15:13:30.862Z,22.33
2019-05-22T15:16:02.562Z,22.02
2019-05-22T15:18:37.817Z,21.93
2019-05-22T15:21:11.424Z,22.86
2019-05-22T15:23:44.970Z,23.38
2019-05-22T15:26:17.268Z,22.79
2019-05-22T15:28:49.096Z,22.30
2019-05-22T15:31:20.851Z,21.85
2019-05-22T15:33:52.960Z,21.56
2019-05-22T15:36:25.628Z,22.30
2019-05-22T15:38:59.830Z,23.22
2019-05-22T15:41:34.090Z,23.19
2019-05-22T15:44:06.960Z,22.50
2019-05-22T15:46:40.357Z,21.92
2019-05-22T15:49:15.505Z,21.93
2019-05-22T15:51:50.715Z,22.76
2019-05-22T15:54:25.527Z,23.51
2019-05-22T15:57:00.392Z,23.17
2019-05-22T15:59:35.827Z,22.44
2019-05-22T16:02:15.141Z,21.85
2019-05-22T16:04:48.868Z,22.13
2019-05-22T16:07:22.541Z,23.00
2019-05-22T16:09:54.361Z,23.30
2019-05-22T16:12:28.995Z,22.65
2019-05-22T16:15:02.394Z,22.05
2019-05-22T16:17:37.161Z,21.86
2019-05-22T16:20:11.475Z,22.68
2019-05-22T16:22:45.572Z,23.12
2019-05-22T16:25:18.843Z,22.50
2019-05-22T16:27:52.501Z,21.81
2019-05-22T16:30:26.383Z,21.57
2019-05-22T16:33:00.867Z,22.40
2019-05-22T16:35:33.054Z,23.16
2019-05-22T16:38:05.360Z,22.82
2019-05-22T16:40:39.893Z,22.06
2019-05-22T16:43:13.137Z,21.40
2019-05-22T16:45:46.366Z,21.79
2019-05-22T16:48:28.617Z,22.63
2019-05-22T16:50:53.948Z,23.25
2019-05-22T16:53:27.829Z,22.58
2019-05-22T16:56:00.948Z,21.82
2019-05-22T16:58:36.393Z,21.56
2019-05-22T17:01:10.211Z,22.20
2019-05-22T17:03:44.247Z,22.86
2019-05-22T17:06:16.890Z,22.71
2019-05-22T17:08:51.366Z,21.96
2019-05-22T17:11:23.397Z,21.34
2019-05-22T17:13:59.422Z,21.84
2019-05-22T17:16:33.789Z,22.63
2019-05-22T17:19:25.679Z,23.22
2019-05-22T17:21:43.401Z,22.57
2019-05-22T17:24:15.255Z,21.79
2019-05-22T17:26:48.105Z,21.36
2019-05-22T17:29:23.855Z,22.02
2019-05-22T17:31:56.302Z,22.78
2019-05-22T17:34:38.600Z,22.46
2019-05-22T17:37:14.528Z,21.69
2019-05-22T17:39:49.590Z,21.06
2019-05-22T17:42:25.139Z,21.29
2019-05-22T17:44:59.683Z,22.12
2019-05-22T17:47:32.494Z,22.75
2019-05-22T17:50:23.619Z,22.19
2019-05-22T17:52:42.658Z,21.48
2019-05-22T17:55:20.740Z,21.29
2019-05-22T17:57:52.742Z,22.08
2019-05-22T18:00:33.811Z,22.65
2019-05-22T18:03:09.628Z,21.99
2019-05-22T18:05:44.603Z,21.23
2019-05-22T18:08:18.203Z,20.89
2019-05-22T18:10:51.056Z,21.71
2019-05-22T18:13:24.888Z,22.40
2019-05-22T18:15:57.630Z,22.15
2019-05-22T18:18:30.246Z,21.44
2019-05-22T18:21:04.591Z,20.78
2019-05-22T18:23:36.530Z,21.02
2019-05-22T18:26:10.061Z,21.82
2019-05-22T18:28:42.114Z,22.36
2019-05-22T18:31:14.273Z,21.85
2019-05-22T18:33:49.732Z,21.16
2019-05-22T18:36:24.490Z,20.68
2019-05-22T18:38:56.713Z,21.36
2019-05-22T18:41:31.030Z,22.09
2019-05-22T18:44:03.007Z,21.86
2019-05-22T18:46:37.345Z,21.14
2019-05-22T18:49:09.334Z,20.51
2019-05-22T18:51:44.370Z,20.85
2019-05-22T18:54:19.192Z,21.64
2019-05-22T18:56:51.515Z,22.24
2019-05-22T18:59:24.060Z,22.27
2019-05-22T19:01:56.838Z,21.48
2019-05-22T19:04:31.297Z,20.84
2019-05-22T19:07:04.728Z,20.54
2019-05-22T19:09:38.637Z,21.34
2019-05-22T19:12:11.033Z,22.15
2019-05-22T19:14:44.417Z,21.88
2019-05-22T19:17:18.675Z,21.16
2019-05-22T19:19:51.698Z,20.57
2019-05-22T19:22:27.063Z,21.14
2019-05-22T19:24:59.122Z,21.93
2019-05-22T19:27:31.335Z,22.05
2019-05-22T19:30:05.794Z,21.24
2019-05-22T19:32:38.540Z,20.57
2019-05-22T19:35:11.287Z,20.33
2019-05-22T19:37:44.307Z,20.99
2019-05-22T19:40:17.786Z,21.76
2019-05-22T19:42:51.269Z,22.44
2019-05-22T19:45:25.076Z,22.05
2019-05-22T19:47:58.870Z,21.36
2019-05-22T19:50:33.346Z,20.72
2019-05-22T19:53:18.571Z,20.26
2019-05-22T19:55:48.001Z,20.94
2019-05-22T19:58:22.451Z,21.81
2019-05-22T20:00:56.385Z,21.58
2019-05-22T20:03:33.929Z,20.86
2019-05-22T20:06:09.511Z,20.23
2019-05-22T20:08:45.670Z,20.55
2019-05-22T20:11:18.926Z,21.36
2019-05-22T20:13:50.671Z,22.03
2019-05-22T20:16:22.418Z,21.84
2019-05-22T20:18:59.728Z,21.06
2019-05-22T20:21:39.634Z,20.40
2019-05-22T20:24:12.043Z,20.44
2019-05-22T20:26:46.002Z,21.29
2019-05-22T20:29:20.892Z,22.02
2019-05-22T20:31:52.994Z,21.64
2019-05-22T20:34:26.952Z,20.91
2019-05-22T20:37:05.189Z,20.20
2019-05-22T20:39:40.457Z,20.17
2019-05-22T20:42:13.346Z,20.96
2019-05-22T20:44:45.452Z,21.61
2019-05-22T20:47:20.907Z,21.74
2019-05-22T20:49:57.735Z,20.95
2019-05-22T20:52:32.114Z,20.32
2019-05-22T20:55:07.186Z,19.75
2019-05-22T20:57:43.841Z,20.37
2019-05-22T21:00:18.362Z,21.14
2019-05-22T21:02:55.114Z,21.23
2019-05-22T21:05:31.247Z,20.46
2019-05-22T21:08:10.602Z,19.78
2019-05-22T21:10:49.787Z,19.49
2019-05-22T21:13:21.800Z,20.20
2019-05-22T21:15:54.984Z,21.07
2019-05-22T21:18:30.843Z,20.94
2019-05-22T21:21:04.307Z,20.20
2019-05-22T21:23:38.219Z,19.57
2019-05-22T21:26:11.394Z,19.46
2019-05-22T21:28:43.579Z,20.29
2019-05-22T21:31:17.601Z,20.96
2019-05-22T21:33:51.180Z,20.81
2019-05-22T21:36:23.889Z,20.11
2019-05-22T21:38:56.588Z,19.46
2019-05-22T21:41:30.153Z,19.85
2019-05-22T21:44:02.183Z,20.65
2019-05-22T21:46:36.153Z,21.26
2019-05-22T21:49:09.147Z,20.88
2019-05-22T21:51:41.496Z,20.12
2019-05-22T21:54:13.878Z,19.46
2019-05-22T21:56:45.786Z,18.95
2019-05-22T21:59:18.309Z,19.53
2019-05-22T22:01:51.949Z,20.43
2019-05-22T22:04:30.360Z,21.03
2019-05-22T22:07:03.077Z,20.72
2019-05-22T22:09:35.753Z,19.99
2019-05-22T22:12:09.488Z,19.36
2019-05-22T22:14:41.697Z,18.77
2019-05-22T22:17:15.078Z,19.12
2019-05-22T22:19:47.274Z,19.91
2019-05-22T22:22:27.148Z,20.62
2019-05-22T22:24:59.054Z,20.52
2019-05-22T22:27:31.319Z,19.79
2019-05-22T22:30:05.668Z,19.17
2019-05-22T22:32:37.790Z,18.89
2019-05-22T22:35:13.387Z,19.70
2019-05-22T22:37:46.618Z,20.46
2019-05-22T22:40:23.916Z,20.61
2019-05-22T22:42:55.822Z,19.82
2019-05-22T22:45:39.126Z,19.13
2019-05-22T22:48:13.043Z,19.12
2019-05-22T22:50:46.597Z,19.99
2019-05-22T22:53:20.477Z,20.71
2019-05-22T22:55:53.493Z,20.52
2019-05-22T22:58:25.399Z,19.75
2019-05-22T23:00:58.898Z,19.10
2019-05-22T23:03:31.906Z,18.53
2019-05-22T23:06:06.675Z,18.92
2019-05-22T23:08:40.896Z,19.79
2019-05-22T23:11:15.835Z,20.54
2019-05-22T23:13:49.646Z,20.92
2019-05-22T23:16:23.900Z,20.20
2019-05-22T23:19:18.376Z,19.56
2019-05-22T23:21:49.034Z,18.89
2019-05-22T23:24:21.281Z,19.12
2019-05-22T23:26:54.299Z,20.02
2019-05-22T23:29:28.431Z,20.67
2019-05-22T23:32:00.817Z,20.44
2019-05-22T23:34:32.912Z,19.68
2019-05-22T23:37:06.161Z,19.09
2019-05-22T23:39:39.689Z,18.70
2019-05-22T23:42:16.420Z,19.40
2019-05-22T23:44:49.770Z,20.29
2019-05-22T23:47:21.854Z,20.20
2019-05-22T23:49:54.534Z,19.47
2019-05-22T23:52:26.919Z,18.81
2019-05-22T23:54:59.593Z,18.30
2019-05-22T23:57:32.208Z,18.94
